Time;durP1;ratioP1;P1;durP2;ratioP2;P2;SDS_P1;SDS_P2;PMS_P1;PMS_P2;Temp;Humidity;BMP_temperature;BMP_pressure;BME280_temperature;BME280_humidity;BME280_pressure;Samples;Min_cycle;Max_cycle;Signal;HPM_P1;HPM_P2
2022/02/05 00:02:10;;;;;;;5.50;0.98;;;5.00;99.90;;;;;;5003089;28;20103;-60
2022/02/05 00:04:36;;;;;;;8.35;1.10;;;5.10;99.90;;;;;;5000936;28;20095;-62
2022/02/05 00:07:05;;;;;;;5.97;0.98;;;5.00;99.90;;;;;;5004160;28;20033;-61
2022/02/05 00:12:51;;;;;;;8.45;1.20;;;5.00;99.90;;;;;;4993526;28;20041;-60
2022/02/05 00:41:48;;;;;;;8.73;0.90;;;5.10;99.90;;;;;;5001965;28;20065;-60
2022/02/05 00:44:14;;;;;;;8.75;2.08;;;5.00;99.90;;;;;;4997384;28;20033;-61
2022/02/05 00:46:41;;;;;;;15.43;1.95;;;5.00;99.90;;;;;;5003243;28;20609;-61
2022/02/05 00:49:07;;;;;;;10.13;0.90;;;5.00;99.90;;;;;;5008375;28;20097;-61
2022/02/05 00:51:35;;;;;;;3.30;0.70;;;4.90;99.90;;;;;;5004002;28;20116;-61
2022/02/05 00:54:10;;;;;;;8.40;0.77;;;4.90;99.90;;;;;;5005044;28;20034;-65
2022/02/05 00:59:15;;;;;;;5.22;0.63;;;4.90;99.90;;;;;;5001322;28;20041;-61
2022/02/05 01:01:41;;;;;;;9.80;1.90;;;4.90;99.90;;;;;;4992410;28;20072;-60
2022/02/05 01:04:07;;;;;;;10.27;0.82;;;4.90;99.90;;;;;;5002006;28;20034;-61
2022/02/05 01:06:33;;;;;;;9.65;1.27;;;4.90;99.90;;;;;;5004256;28;20038;-60
2022/02/05 01:08:59;;;;;;;19.58;2.67;;;4.80;99.90;;;;;;5002591;28;20448;-60
2022/02/05 01:11:24;;;;;;;15.32;2.00;;;4.70;99.90;;;;;;5003364;28;20022;-60
2022/02/05 01:13:51;;;;;;;7.53;0.90;;;4.80;99.90;;;;;;4999598;28;20057;-60
2022/02/05 01:16:26;;;;;;;5.28;1.17;;;4.80;99.90;;;;;;5003396;28;20030;-60
2022/02/05 01:18:51;;;;;;;7.28;0.98;;;4.80;99.90;;;;;;5000700;28;20042;-60
2022/02/05 01:21:36;;;;;;;6.53;0.95;;;4.70;99.90;;;;;;5001463;28;20042;-61
2022/02/05 01:24:06;;;;;;;5.13;1.02;;;4.80;99.90;;;;;;5002418;28;20099;-61
2022/02/05 01:26:37;;;;;;;9.45;0.88;;;4.70;99.90;;;;;;5000311;28;20504;-64
2022/02/05 01:29:10;;;;;;;15.18;1.20;;;4.70;99.90;;;;;;5003238;28;20043;-61
2022/02/05 01:31:44;;;;;;;8.75;1.60;;;4.60;99.90;;;;;;5002678;28;20444;-60
2022/02/05 01:34:20;;;;;;;7.07;1.00;;;4.70;99.90;;;;;;5001408;28;20109;-61
2022/02/05 01:56:11;;;;;;;8.90;1.25;;;4.50;99.90;;;;;;4999712;28;20042;-61
2022/02/05 01:58:54;;;;;;;8.63;1.27;;;4.40;99.90;;;;;;4998990;28;20036;-60
2022/02/05 02:12:09;;;;;;;4.47;0.73;;;4.50;99.90;;;;;;5005502;28;20116;-62
2022/02/05 02:14:53;;;;;;;10.32;1.33;;;4.40;99.90;;;;;;5015466;23;20427;-69
2022/02/05 02:23:09;;;;;;;9.70;0.75;;;4.50;99.90;;;;;;5019826;28;20117;-69
2022/02/05 02:31:13;;;;;;;9.00;1.00;;;4.50;99.90;;;;;;4984794;28;20034;-67
2022/02/05 02:33:44;;;;;;;12.55;1.77;;;4.50;99.90;;;;;;5001336;28;20109;-68
2022/02/05 02:36:32;;;;;;;11.25;0.85;;;4.50;99.90;;;;;;4999647;28;20086;-67
2022/02/05 02:39:06;;;;;;;10.13;1.67;;;4.60;99.90;;;;;;5003784;28;20073;-68
2022/02/05 02:41:40;;;;;;;5.93;1.00;;;4.50;99.90;;;;;;5002821;28;20034;-70
2022/02/05 02:44:06;;;;;;;7.03;1.08;;;4.50;99.90;;;;;;5006115;28;20042;-65
2022/02/05 02:46:31;;;;;;;13.60;1.02;;;4.50;99.90;;;;;;5000762;28;20030;-67
2022/02/05 02:48:59;;;;;;;5.40;0.88;;;4.40;99.90;;;;;;5004958;28;20166;-66
2022/02/05 02:57:01;;;;;;;12.93;2.05;;;4.40;99.90;;;;;;5003658;28;20133;-68
2022/02/05 02:59:37;;;;;;;13.30;1.52;;;4.40;99.90;;;;;;5004424;28;20034;-67
2022/02/05 03:02:12;;;;;;;9.48;2.42;;;4.30;99.90;;;;;;5001201;28;20034;-68
2022/02/05 03:04:37;;;;;;;5.25;0.70;;;4.30;99.90;;;;;;4995584;28;20490;-68
2022/02/05 03:07:04;;;;;;;11.07;2.08;;;4.20;99.90;;;;;;5004036;28;20057;-68
2022/02/05 03:09:30;;;;;;;13.90;2.28;;;4.20;99.90;;;;;;5002410;28;20102;-68
2022/02/05 03:11:56;;;;;;;7.75;1.27;;;4.20;99.90;;;;;;5004447;28;20477;-68
2022/02/05 03:14:21;;;;;;;7.47;1.02;;;4.20;99.90;;;;;;5002632;28;20540;-65
2022/02/05 03:16:51;;;;;;;9.75;1.17;;;4.20;99.90;;;;;;5003681;28;20042;-67
2022/02/05 03:19:18;;;;;;;8.18;1.17;;;4.20;99.90;;;;;;5004317;28;20410;-68
2022/02/05 03:21:44;;;;;;;12.75;1.35;;;4.20;99.90;;;;;;4998719;28;20061;-66
2022/02/05 03:24:10;;;;;;;6.68;0.75;;;4.30;99.90;;;;;;5004296;28;20043;-68
2022/02/05 03:26:37;;;;;;;8.75;1.38;;;4.40;99.90;;;;;;4997014;28;20035;-68
2022/02/05 03:29:06;;;;;;;7.30;1.30;;;4.40;99.90;;;;;;5001107;28;20035;-67
2022/02/05 03:31:32;;;;;;;10.65;1.85;;;4.30;99.90;;;;;;5004307;28;20037;-69
2022/02/05 03:33:58;;;;;;;7.32;1.13;;;4.30;99.90;;;;;;5005981;28;20026;-67
2022/02/05 03:36:23;;;;;;;14.90;2.50;;;4.30;99.90;;;;;;5002779;28;20030;-69
2022/02/05 03:38:49;;;;;;;16.02;1.65;;;4.30;99.90;;;;;;5006703;28;20029;-68
2022/02/05 03:41:14;;;;;;;8.68;1.35;;;4.30;99.90;;;;;;5005764;28;20046;-68
2022/02/05 03:43:40;;;;;;;8.23;1.20;;;4.30;99.90;;;;;;5005337;28;20042;-65
2022/02/05 03:46:06;;;;;;;16.25;1.50;;;4.30;99.90;;;;;;5005835;28;20557;-70
2022/02/05 03:48:31;;;;;;;12.88;2.58;;;4.30;99.90;;;;;;4996541;28;20039;-69
2022/02/05 03:50:57;;;;;;;6.03;2.08;;;4.30;99.90;;;;;;5003513;28;20033;-68
2022/02/05 03:53:22;;;;;;;8.40;1.10;;;4.20;99.90;;;;;;5001687;28;20486;-66
2022/02/05 03:55:48;;;;;;;8.05;0.93;;;4.20;99.90;;;;;;5002696;28;20097;-67
2022/02/05 03:58:14;;;;;;;10.88;0.90;;;4.10;99.90;;;;;;5003325;28;20025;-69
2022/02/05 04:00:40;;;;;;;11.32;1.08;;;4.10;99.90;;;;;;4997766;28;20150;-66
2022/02/05 04:03:09;;;;;;;20.27;2.17;;;4.10;99.90;;;;;;5003099;28;20026;-68
2022/02/05 04:05:35;;;;;;;10.70;1.15;;;4.10;99.90;;;;;;5001128;28;20070;-68
2022/02/05 04:08:02;;;;;;;5.53;0.70;;;4.00;99.90;;;;;;5004271;28;20403;-67
2022/02/05 04:10:30;;;;;;;7.68;0.95;;;4.00;99.90;;;;;;5000650;28;20038;-70
2022/02/05 04:18:22;;;;;;;;;;;3.90;99.90;;;;;;5001887;28;20026;-69
2022/02/05 04:20:48;;;;;;;9.52;1.55;;;4.00;99.90;;;;;;5002591;28;20264;-67
2022/02/05 04:23:14;;;;;;;11.32;2.47;;;4.00;99.90;;;;;;5002753;28;20034;-67
2022/02/05 04:25:41;;;;;;;7.38;1.42;;;4.00;99.90;;;;;;4997579;28;20039;-65
2022/02/05 04:28:06;;;;;;;11.73;1.85;;;4.00;99.90;;;;;;5003792;28;20517;-68
2022/02/05 04:30:32;;;;;;;12.68;2.22;;;4.00;99.90;;;;;;5000224;28;20031;-69
2022/02/05 04:32:58;;;;;;;14.02;1.55;;;4.10;99.90;;;;;;4996121;28;20033;-68
2022/02/05 04:35:24;;;;;;;8.73;1.52;;;4.10;99.90;;;;;;5002909;28;20030;-69
2022/02/05 04:37:52;;;;;;;12.82;2.67;;;4.20;99.90;;;;;;5001789;28;20164;-68
2022/02/05 04:40:39;;;;;;;14.20;1.95;;;4.30;99.90;;;;;;4995893;28;20027;-65
2022/02/05 04:51:31;;;;;;;9.68;1.42;;;4.30;99.90;;;;;;5000189;28;20077;-70
2022/02/05 04:56:53;;;;;;;8.35;1.92;;;4.30;99.90;;;;;;4998618;28;20533;-69
2022/02/05 05:02:13;;;;;;;9.60;1.23;;;4.40;99.90;;;;;;5002170;28;20509;-68
2022/02/05 05:20:23;;;;;;;6.40;1.05;;;4.30;99.90;;;;;;5001822;28;20072;-66
2022/02/05 05:22:49;;;;;;;6.10;1.33;;;4.20;99.90;;;;;;4998832;28;20048;-68
2022/02/05 05:25:16;;;;;;;12.45;2.22;;;4.10;99.90;;;;;;5000837;28;20034;-69
2022/02/05 05:27:41;;;;;;;5.05;1.17;;;4.10;99.90;;;;;;5000246;28;20053;-67
2022/02/05 05:30:07;;;;;;;13.65;1.85;;;3.90;99.90;;;;;;5000658;28;20027;-68
2022/02/05 05:32:33;;;;;;;8.18;1.77;;;3.90;99.90;;;;;;5001561;28;20034;-64
2022/02/05 05:34:59;;;;;;;8.77;1.38;;;3.90;99.90;;;;;;4999888;28;20452;-68
2022/02/05 05:37:24;;;;;;;13.15;1.55;;;3.80;99.90;;;;;;4996096;28;20031;-67
2022/02/05 05:39:50;;;;;;;16.33;2.45;;;3.80;99.90;;;;;;5023773;28;20084;-65
2022/02/05 05:42:24;;;;;;;10.32;0.98;;;3.80;99.90;;;;;;5003512;28;20037;-67
2022/02/05 05:47:20;;;;;;;4.03;0.70;;;3.70;99.90;;;;;;5005961;28;20183;-68
2022/02/05 05:52:17;;;;;;;2.88;0.70;;;3.60;99.90;;;;;;5006551;28;20125;-65
2022/02/05 05:54:43;;;;;;;2.40;0.75;;;3.60;99.90;;;;;;5007423;28;20066;-66
2022/02/05 05:57:10;;;;;;;15.95;2.83;;;3.60;99.90;;;;;;5006678;28;20402;-68
2022/02/05 05:59:37;;;;;;;14.55;1.05;;;3.50;99.90;;;;;;5008043;28;20052;-67
2022/02/05 06:02:03;;;;;;;2.58;0.63;;;3.60;99.90;;;;;;5004564;28;20026;-68
2022/02/05 06:04:29;;;;;;;12.70;1.38;;;3.60;99.90;;;;;;5006872;28;20042;-68
2022/02/05 06:06:55;;;;;;;8.45;1.23;;;3.50;99.90;;;;;;5004942;28;20491;-68
2022/02/05 06:09:20;;;;;;;10.35;1.50;;;3.60;99.90;;;;;;5007783;28;20046;-67
2022/02/05 06:11:46;;;;;;;3.20;0.90;;;3.60;99.90;;;;;;5005373;28;20053;-68
2022/02/05 06:14:16;;;;;;;8.55;1.80;;;3.60;99.90;;;;;;5011536;28;20053;-68
2022/02/05 06:16:43;;;;;;;8.00;0.60;;;3.60;99.90;;;;;;5006865;28;21105;-66
2022/02/05 06:19:09;;;;;;;10.77;1.63;;;3.60;99.90;;;;;;5006636;28;20446;-67
2022/02/05 06:21:34;;;;;;;2.85;0.70;;;3.50;99.90;;;;;;5008121;28;20111;-69
2022/02/05 06:24:00;;;;;;;8.80;1.30;;;3.50;99.90;;;;;;5012566;28;20054;-68
2022/02/05 06:26:25;;;;;;;5.15;0.80;;;3.50;99.90;;;;;;5016103;28;20030;-69
2022/02/05 06:28:51;;;;;;;10.95;1.75;;;3.40;99.90;;;;;;5008179;28;20098;-68
2022/02/05 06:31:17;;;;;;;8.18;1.23;;;3.40;99.90;;;;;;5013315;28;20340;-67
2022/02/05 06:33:42;;;;;;;3.97;0.90;;;3.30;99.90;;;;;;5014529;28;20035;-68
2022/02/05 06:36:08;;;;;;;8.02;1.90;;;3.30;99.90;;;;;;5013672;28;20094;-67
2022/02/05 06:38:33;;;;;;;6.10;1.65;;;3.30;99.90;;;;;;5009748;28;20034;-67
2022/02/05 06:40:59;;;;;;;11.30;1.25;;;3.20;99.90;;;;;;5018020;28;20057;-68
2022/02/05 06:43:25;;;;;;;6.13;1.40;;;3.20;99.90;;;;;;5014885;28;20036;-67
2022/02/05 06:45:50;;;;;;;12.80;0.68;;;3.20;99.90;;;;;;5010250;28;20088;-68
2022/02/05 06:48:16;;;;;;;13.95;1.85;;;3.20;99.90;;;;;;5017697;28;20490;-67
2022/02/05 06:50:41;;;;;;;13.07;1.73;;;3.20;99.90;;;;;;5014872;28;20116;-69
2022/02/05 06:53:07;;;;;;;7.13;0.90;;;3.20;99.90;;;;;;5015566;28;20038;-68
2022/02/05 06:55:33;;;;;;;9.50;0.80;;;3.20;99.90;;;;;;5013006;28;20032;-67
2022/02/05 06:57:58;;;;;;;5.70;0.90;;;3.10;99.90;;;;;;5009592;28;20061;-67
2022/02/05 07:00:24;;;;;;;4.63;0.88;;;3.10;99.90;;;;;;5011383;28;20033;-67
2022/02/05 07:02:51;;;;;;;9.32;1.33;;;3.10;99.90;;;;;;5006546;28;20566;-69
2022/02/05 07:05:16;;;;;;;3.08;0.50;;;3.10;99.90;;;;;;5008650;28;20131;-68
2022/02/05 07:07:42;;;;;;;10.15;1.92;;;3.20;99.90;;;;;;5004277;28;20029;-69
2022/02/05 07:10:09;;;;;;;4.40;1.30;;;3.20;99.90;;;;;;5006092;28;20034;-72
2022/02/05 07:12:45;;;;;;;4.15;0.93;;;3.30;99.90;;;;;;5007982;28;20046;-68
2022/02/05 07:15:18;;;;;;;12.93;0.95;;;3.30;99.90;;;;;;5007866;28;20481;-68
2022/02/05 07:17:57;;;;;;;13.98;2.30;;;3.20;99.90;;;;;;5003252;28;20077;-68
2022/02/05 07:20:36;;;;;;;11.70;1.60;;;3.20;99.90;;;;;;4999233;28;20049;-66
2022/02/05 07:31:17;;;;;;;;;;;3.10;99.90;;;;;;5001856;28;20034;-68
2022/02/05 07:33:43;;;;;;;3.58;0.75;;;3.10;99.90;;;;;;5002034;28;19944;-67
2022/02/05 07:36:11;;;;;;;3.03;1.00;;;3.10;99.90;;;;;;5004731;28;20035;-67
2022/02/05 07:38:37;;;;;;;11.90;1.40;;;3.20;99.90;;;;;;4999857;28;20108;-66
2022/02/05 07:41:03;;;;;;;10.93;0.95;;;3.20;99.90;;;;;;5003524;28;20043;-68
2022/02/05 07:43:34;;;;;;;11.75;0.98;;;3.30;99.90;;;;;;5005101;28;20026;-67
2022/02/05 07:46:00;;;;;;;10.48;1.08;;;3.40;99.90;;;;;;5005341;28;20061;-68
2022/02/05 07:48:26;;;;;;;4.80;0.85;;;3.40;99.90;;;;;;5001072;28;20101;-68
2022/02/05 07:50:52;;;;;;;5.70;1.60;;;3.50;99.90;;;;;;5002629;28;20062;-68
2022/02/05 07:53:18;;;;;;;4.65;1.02;;;3.50;99.90;;;;;;5003020;28;20034;-65
2022/02/05 07:55:44;;;;;;;3.47;0.93;;;3.50;99.90;;;;;;5001302;28;20037;-68
2022/02/05 07:58:09;;;;;;;7.53;1.20;;;3.60;99.90;;;;;;4996572;28;20027;-68
2022/02/05 08:00:35;;;;;;;10.55;1.38;;;3.60;99.90;;;;;;4990586;28;20479;-68
2022/02/05 08:03:01;;;;;;;11.90;1.48;;;3.70;99.90;;;;;;4994473;28;20034;-68
2022/02/05 08:05:27;;;;;;;10.07;2.28;;;3.80;99.90;;;;;;5012981;23;20042;-63
2022/02/05 08:07:53;;;;;;;14.80;1.85;;;3.90;99.90;;;;;;5007421;28;20034;-63
2022/02/05 08:10:21;;;;;;;5.40;1.48;;;3.90;99.90;;;;;;5011951;28;20033;-62
2022/02/05 08:12:53;;;;;;;7.15;1.30;;;4.00;99.90;;;;;;5009041;28;20050;-63
2022/02/05 08:15:22;;;;;;;15.52;1.90;;;4.00;99.90;;;;;;5001613;28;20621;-63
2022/02/05 08:17:49;;;;;;;10.50;1.88;;;4.00;99.90;;;;;;4994234;28;20084;-64
2022/02/05 08:20:15;;;;;;;7.70;1.45;;;4.00;99.90;;;;;;4994828;28;20030;-64
2022/02/05 08:22:41;;;;;;;10.02;1.08;;;4.00;99.90;;;;;;4993012;28;20049;-64
2022/02/05 08:25:07;;;;;;;10.45;1.23;;;4.10;99.90;;;;;;4995849;28;20502;-63
2022/02/05 08:27:32;;;;;;;9.63;1.95;;;4.10;99.90;;;;;;4992881;28;20037;-64
2022/02/05 08:30:02;;;;;;;11.85;1.33;;;4.10;99.90;;;;;;4996453;28;20081;-64
2022/02/05 08:32:29;;;;;;;7.83;0.90;;;4.10;99.90;;;;;;5000632;28;20026;-65
2022/02/05 08:34:57;;;;;;;10.27;1.92;;;4.20;99.90;;;;;;4998781;28;20057;-64
2022/02/05 08:37:23;;;;;;;7.90;1.48;;;4.30;99.90;;;;;;4998536;28;20034;-62
2022/02/05 08:39:48;;;;;;;6.53;1.33;;;4.30;99.90;;;;;;5002284;28;20037;-65
2022/02/05 08:42:14;;;;;;;12.88;2.55;;;4.40;99.90;;;;;;5001425;28;20037;-63
2022/02/05 08:44:40;;;;;;;9.85;1.85;;;4.40;99.90;;;;;;4999220;28;20402;-64
2022/02/05 08:47:05;;;;;;;14.02;1.45;;;4.50;99.90;;;;;;5001196;28;20118;-64
2022/02/05 08:49:31;;;;;;;6.13;1.75;;;4.50;99.90;;;;;;5000026;28;20033;-63
2022/02/05 08:52:00;;;;;;;11.70;2.05;;;4.70;99.90;;;;;;4997468;28;20038;-63
2022/02/05 08:54:27;;;;;;;11.57;1.80;;;4.80;99.90;;;;;;4995477;28;20089;-64
2022/02/05 08:56:54;;;;;;;19.02;2.95;;;4.90;99.90;;;;;;5000851;28;20064;-63
2022/02/05 08:59:20;;;;;;;20.65;1.98;;;5.00;99.90;;;;;;4992823;28;20042;-64
2022/02/05 09:01:56;;;;;;;7.88;1.98;;;5.10;99.90;;;;;;4996101;28;20491;-64
2022/02/05 09:04:32;;;;;;;8.40;1.38;;;5.20;99.90;;;;;;4996347;28;20041;-64
2022/02/05 09:06:59;;;;;;;4.15;0.82;;;5.30;99.90;;;;;;5000383;28;20108;-65
2022/02/05 09:12:15;;;;;;;5.65;1.17;;;5.50;99.90;;;;;;5000725;28;20512;-63
2022/02/05 09:14:44;;;;;;;10.57;2.88;;;5.60;99.90;;;;;;5001591;28;20034;-62
2022/02/05 09:17:10;;;;;;;11.43;1.48;;;5.80;99.90;;;;;;4996482;28;20486;-63
2022/02/05 09:19:36;;;;;;;8.55;1.17;;;5.80;99.90;;;;;;5000717;28;20038;-63
2022/02/05 09:22:04;;;;;;;5.68;0.90;;;5.90;99.90;;;;;;4999711;28;20045;-65
2022/02/05 09:24:30;;;;;;;7.88;2.20;;;6.00;99.90;;;;;;4999881;28;20042;-63
2022/02/05 09:27:00;;;;;;;8.80;1.67;;;6.10;99.90;;;;;;5000680;28;20034;-63
2022/02/05 09:29:26;;;;;;;8.07;2.05;;;6.30;99.90;;;;;;4997772;28;20117;-65
2022/02/05 09:31:52;;;;;;;7.55;1.38;;;6.40;99.90;;;;;;5006520;28;20050;-64
2022/02/05 09:34:19;;;;;;;7.53;0.90;;;6.50;99.90;;;;;;4997074;28;20049;-63
2022/02/05 09:36:45;;;;;;;7.03;1.42;;;6.70;99.90;;;;;;4997035;28;20038;-65
2022/02/05 09:39:11;;;;;;;7.72;0.90;;;6.70;99.90;;;;;;5001781;28;20402;-64
2022/02/05 09:41:38;;;;;;;7.82;1.13;;;6.80;99.90;;;;;;4997402;28;20612;-63
2022/02/05 09:44:05;;;;;;;6.45;1.30;;;6.80;99.90;;;;;;5001216;28;20088;-64
2022/02/05 09:46:30;;;;;;;9.00;1.33;;;6.80;99.90;;;;;;5001619;28;20062;-64
2022/02/05 09:48:57;;;;;;;10.85;1.80;;;6.80;99.90;;;;;;4999637;28;20144;-63
2022/02/05 09:51:32;;;;;;;7.35;1.10;;;6.90;99.90;;;;;;5000319;28;20038;-63
2022/02/05 09:54:00;;;;;;;8.77;2.10;;;7.00;99.90;;;;;;5000229;28;20077;-63
2022/02/05 09:56:27;;;;;;;7.30;1.48;;;7.10;99.90;;;;;;4999660;28;20030;-64
2022/02/05 09:58:54;;;;;;;14.02;2.25;;;7.00;99.90;;;;;;4998414;28;20487;-63
2022/02/05 10:01:25;;;;;;;10.75;2.60;;;7.00;99.90;;;;;;5000861;28;20049;-63
2022/02/05 10:03:52;;;;;;;12.55;1.20;;;7.00;99.90;;;;;;4997956;28;20034;-63
2022/02/05 10:06:21;;;;;;;7.78;0.70;;;7.10;99.90;;;;;;4998815;28;20034;-65
2022/02/05 10:08:58;;;;;;;5.80;1.25;;;7.20;99.90;;;;;;4999571;28;20034;-63
2022/02/05 10:11:24;;;;;;;7.45;0.90;;;7.20;99.90;;;;;;4998224;28;20402;-66
2022/02/05 10:13:50;;;;;;;4.93;0.70;;;7.20;99.90;;;;;;5001023;28;20036;-63
2022/02/05 10:16:16;;;;;;;4.07;1.38;;;7.20;99.90;;;;;;5000628;28;20023;-64
2022/02/05 10:18:43;;;;;;;11.13;0.98;;;7.20;99.90;;;;;;5004793;28;20149;-64
2022/02/05 10:21:21;;;;;;;9.45;0.93;;;7.20;99.90;;;;;;4997318;28;20557;-63
2022/02/05 10:24:04;;;;;;;9.60;1.27;;;7.30;99.90;;;;;;4998909;28;20058;-64
2022/02/05 10:26:38;;;;;;;8.77;0.70;;;7.40;99.90;;;;;;5000318;28;20046;-64
2022/02/05 10:29:17;;;;;;;10.38;1.23;;;7.40;99.90;;;;;;5002463;28;20560;-64
2022/02/05 10:34:55;;;;;;;13.35;1.10;;;7.30;99.90;;;;;;5000289;28;20491;-62
2022/02/05 10:37:25;;;;;;;7.70;0.73;;;7.30;99.90;;;;;;5000623;28;20069;-63
2022/02/05 10:45:11;;;;;;;6.85;1.27;;;7.40;99.90;;;;;;4998390;28;20029;-64
2022/02/05 10:47:51;;;;;;;8.48;0.90;;;7.50;99.90;;;;;;4996778;28;20026;-63
2022/02/05 10:50:19;;;;;;;6.13;1.30;;;7.60;99.90;;;;;;4999455;28;20050;-64
2022/02/05 10:53:25;;;;;;;10.32;2.17;;;7.70;99.90;;;;;;5002039;28;20038;-64
2022/02/05 11:07:12;;;;;;;23.27;2.90;;;8.00;99.90;;;;;;5000356;28;20467;-63
2022/02/05 11:09:40;;;;;;;7.82;1.02;;;7.90;99.90;;;;;;4997295;28;20034;-63
2022/02/05 11:20:24;;;;;;;11.20;0.93;;;7.90;99.90;;;;;;4989254;28;20061;-63
2022/02/05 11:23:00;;;;;;;4.75;1.08;;;7.90;99.90;;;;;;5002335;28;20395;-63
2022/02/05 11:25:32;;;;;;;9.63;1.25;;;7.90;99.90;;;;;;4996920;28;20490;-64
2022/02/05 11:27:57;;;;;;;10.23;1.35;;;7.90;99.90;;;;;;5002383;28;20038;-64
2022/02/05 11:30:36;;;;;;;9.95;1.20;;;7.80;99.90;;;;;;5001375;28;20091;-64
2022/02/05 11:33:23;;;;;;;3.13;1.00;;;7.70;99.90;;;;;;5002912;28;20037;-64
2022/02/05 11:38:30;;;;;;;5.82;1.10;;;7.70;99.90;;;;;;5001949;28;20038;-63
2022/02/05 11:40:57;;;;;;;12.43;1.20;;;7.80;99.90;;;;;;5002344;28;20062;-64
2022/02/05 11:43:27;;;;;;;11.48;1.15;;;8.00;99.90;;;;;;5001500;28;20099;-64
2022/02/05 11:46:07;;;;;;;10.57;1.45;;;8.10;99.90;;;;;;5001942;28;20034;-64
2022/02/05 11:48:36;;;;;;;6.72;1.35;;;8.20;99.90;;;;;;4998770;28;20161;-65
2022/02/05 11:51:31;;;;;;;5.82;1.00;;;8.20;99.90;;;;;;5001477;28;20069;-64
2022/02/05 11:53:59;;;;;;;6.18;0.80;;;8.20;99.90;;;;;;5001190;28;20038;-65
2022/02/05 11:56:34;;;;;;;10.15;1.50;;;8.30;99.90;;;;;;4998858;28;20038;-63
2022/02/05 11:59:00;;;;;;;9.88;1.88;;;8.40;99.90;;;;;;5002454;28;20026;-64
2022/02/05 12:01:34;;;;;;;7.55;1.30;;;8.40;99.90;;;;;;4996280;28;20034;-64
2022/02/05 12:04:28;;;;;;;10.25;1.25;;;8.50;99.90;;;;;;4998159;28;20094;-64
2022/02/05 12:07:00;;;;;;;4.40;0.65;;;8.70;99.90;;;;;;4999918;28;20065;-63
2022/02/05 12:09:36;;;;;;;31.02;1.83;;;8.80;99.90;;;;;;4999844;28;20026;-63
2022/02/05 12:12:34;;;;;;;12.00;0.93;;;8.90;99.90;;;;;;4999557;28;20034;-63
2022/02/05 12:15:15;;;;;;;6.15;0.88;;;8.90;99.90;;;;;;5001975;28;20070;-63
2022/02/05 12:21:10;;;;;;;6.22;1.23;;;8.80;99.90;;;;;;4997956;28;20045;-65
2022/02/05 12:26:42;;;;;;;11.55;1.15;;;8.70;99.90;;;;;;4996630;28;20038;-63
2022/02/05 12:29:24;;;;;;;7.38;1.35;;;8.70;99.90;;;;;;4994121;28;20116;-64
2022/02/05 12:31:50;;;;;;;10.02;1.40;;;8.70;99.90;;;;;;4999185;28;20041;-62
2022/02/05 12:34:16;;;;;;;6.53;1.35;;;8.80;99.90;;;;;;4998910;28;20038;-62
2022/02/05 12:36:53;;;;;;;18.38;1.92;;;8.90;99.90;;;;;;4998759;28;20085;-63
2022/02/05 12:39:27;;;;;;;6.57;2.30;;;8.90;99.90;;;;;;4999754;28;20076;-64
2022/02/05 12:41:56;;;;;;;11.23;2.03;;;9.00;99.90;;;;;;4999972;28;20029;-62
2022/02/05 12:44:24;;;;;;;7.13;1.05;;;9.00;99.90;;;;;;4999506;28;20060;-63
2022/02/05 12:47:03;;;;;;;8.55;1.33;;;9.00;99.90;;;;;;4998535;28;20035;-65
2022/02/05 12:49:47;;;;;;;25.08;2.95;;;9.00;99.90;;;;;;5000200;28;20042;-64
2022/02/05 12:52:13;;;;;;;7.50;0.70;;;8.90;99.90;;;;;;5001155;28;20034;-65
2022/02/05 12:54:48;;;;;;;5.53;1.17;;;8.80;99.90;;;;;;5000449;28;20041;-65
2022/02/05 12:57:17;;;;;;;13.70;1.33;;;8.80;99.90;;;;;;4998078;28;20386;-64
2022/02/05 12:59:43;;;;;;;8.30;0.88;;;8.60;99.90;;;;;;4996867;28;20038;-63
2022/02/05 13:02:10;;;;;;;15.80;0.95;;;8.60;99.90;;;;;;4998500;28;20085;-63
2022/02/05 13:04:42;;;;;;;12.23;2.25;;;8.60;99.90;;;;;;4996511;28;20639;-63
2022/02/05 13:07:11;;;;;;;7.78;1.38;;;8.70;99.90;;;;;;5000910;28;20040;-66
2022/02/05 13:09:54;;;;;;;5.90;1.88;;;8.60;99.90;;;;;;4996590;28;20038;-63
2022/02/05 13:12:25;;;;;;;10.18;1.05;;;8.60;99.90;;;;;;4997432;28;20033;-64
2022/02/05 13:15:09;;;;;;;10.80;1.92;;;8.60;99.90;;;;;;4998179;28;20041;-64
2022/02/05 13:17:43;;;;;;;7.88;1.10;;;8.80;99.90;;;;;;4994420;28;20034;-63
2022/02/05 13:36:24;;;;;;;6.90;0.60;;;9.30;99.90;;;;;;4995865;28;20041;-64
2022/02/05 13:39:08;;;;;;;11.02;1.35;;;9.40;99.90;;;;;;4991838;28;20038;-63
2022/02/05 13:42:24;;;;;;;6.22;0.75;;;9.30;99.90;;;;;;4993680;28;20715;-65
2022/02/05 13:44:26;;;;;;;10.57;0.98;;;9.30;99.90;;;;;;4998944;28;20055;-65
2022/02/05 13:47:10;;;;;;;4.30;0.95;;;9.20;99.90;;;;;;4998749;28;20058;-65
2022/02/05 13:49:37;;;;;;;8.05;0.80;;;9.10;99.90;;;;;;4993846;28;20544;-64
2022/02/05 13:52:06;;;;;;;3.78;1.40;;;9.00;99.90;;;;;;5000489;28;20029;-63
2022/02/05 13:54:37;;;;;;;6.25;1.60;;;9.00;99.90;;;;;;4996789;28;20049;-62
2022/02/05 13:57:03;;;;;;;11.60;1.58;;;8.90;99.90;;;;;;4996696;28;20053;-64
2022/02/05 13:59:30;;;;;;;8.00;1.75;;;8.80;99.90;;;;;;4999943;28;20030;-64
2022/02/05 14:02:10;;;;;;;8.15;1.52;;;8.70;99.90;;;;;;4996090;28;20038;-64
2022/02/05 14:04:35;;;;;;;7.35;0.82;;;8.60;99.90;;;;;;4998583;28;20021;-63
2022/02/05 14:07:01;;;;;;;8.55;0.85;;;8.50;99.90;;;;;;4996324;28;20478;-64
2022/02/05 14:09:34;;;;;;;5.40;0.77;;;8.50;99.90;;;;;;5000195;28;20067;-65
2022/02/05 14:12:15;;;;;;;12.05;0.90;;;8.40;99.90;;;;;;5008706;28;20039;-64
2022/02/05 14:14:40;;;;;;;10.57;1.55;;;8.50;99.90;;;;;;4993021;28;20049;-64
2022/02/05 14:17:17;;;;;;;10.13;1.15;;;8.60;99.90;;;;;;4997063;28;20382;-65
2022/02/05 14:19:43;;;;;;;7.00;1.17;;;8.70;99.90;;;;;;5013357;28;20038;-64
2022/02/05 14:22:25;;;;;;;7.72;1.05;;;8.70;99.90;;;;;;4999292;28;20090;-65
2022/02/05 14:25:22;;;;;;;2.53;0.50;;;8.80;99.90;;;;;;4997098;28;20030;-64
2022/02/05 14:28:11;;;;;;;7.25;1.00;;;8.70;99.90;;;;;;4998627;28;20030;-64
2022/02/05 14:30:41;;;;;;;5.03;0.80;;;8.90;99.90;;;;;;4995804;28;20033;-63
2022/02/05 14:33:08;;;;;;;7.22;1.10;;;8.80;99.90;;;;;;4998577;28;20053;-64
2022/02/05 14:36:34;;;;;;;8.30;1.67;;;8.80;99.90;;;;;;4995179;28;20129;-64
2022/02/05 14:41:04;;;;;;;7.18;0.82;;;8.70;99.90;;;;;;4994746;28;20084;-64
2022/02/05 14:43:30;;;;;;;15.50;1.30;;;8.60;99.90;;;;;;5000411;28;20050;-64
2022/02/05 14:45:56;;;;;;;4.45;1.05;;;8.60;99.90;;;;;;5000452;28;20117;-64
2022/02/05 14:48:23;;;;;;;7.45;1.13;;;8.70;99.90;;;;;;5004678;28;20109;-64
2022/02/05 14:50:49;;;;;;;8.48;1.50;;;8.60;99.90;;;;;;4999282;28;20049;-64
2022/02/05 14:53:15;;;;;;;11.23;1.35;;;8.50;99.90;;;;;;4996188;28;20368;-64
2022/02/05 14:55:41;;;;;;;7.47;0.93;;;8.50;99.90;;;;;;5004624;28;20040;-64
2022/02/05 14:58:07;;;;;;;4.57;1.10;;;8.50;99.90;;;;;;4998051;28;20030;-64
2022/02/05 15:00:32;;;;;;;9.60;0.98;;;8.50;99.90;;;;;;5006147;28;20080;-64
2022/02/05 15:02:58;;;;;;;9.95;1.60;;;8.50;99.90;;;;;;4998940;28;20034;-63
2022/02/05 15:05:24;;;;;;;10.27;0.90;;;8.50;99.90;;;;;;5001623;28;20486;-64
2022/02/05 15:07:50;;;;;;;10.07;1.48;;;8.50;99.90;;;;;;4996763;28;20030;-63
2022/02/05 15:10:18;;;;;;;5.15;1.10;;;8.50;99.90;;;;;;4995887;28;20569;-63
2022/02/05 15:12:44;;;;;;;10.90;0.90;;;8.50;99.90;;;;;;4992865;28;20042;-65
2022/02/05 15:15:23;;;;;;;8.48;1.10;;;8.50;99.90;;;;;;4996506;28;20066;-62
2022/02/05 15:17:48;;;;;;;9.45;1.10;;;8.50;99.90;;;;;;4997616;28;20038;-63
2022/02/05 15:20:16;;;;;;;13.57;1.67;;;8.40;99.90;;;;;;4998555;28;20402;-64
2022/02/05 15:22:46;;;;;;;11.32;1.73;;;8.40;99.90;;;;;;4999889;28;20034;-63
2022/02/05 15:25:12;;;;;;;6.27;1.77;;;8.40;99.90;;;;;;4999255;28;20034;-63
2022/02/05 15:27:38;;;;;;;11.95;1.75;;;8.40;99.90;;;;;;4999361;28;20053;-64
2022/02/05 15:30:06;;;;;;;4.85;0.70;;;8.40;99.90;;;;;;5000112;28;20522;-63
2022/02/05 15:32:31;;;;;;;10.75;1.75;;;8.40;99.90;;;;;;4999054;28;20129;-63
2022/02/05 15:34:57;;;;;;;6.63;1.55;;;8.30;99.90;;;;;;4998135;28;20117;-64
2022/02/05 15:37:25;;;;;;;7.03;1.27;;;8.30;99.90;;;;;;4998763;28;20034;-63
2022/02/05 15:45:02;;;;;;;11.73;1.55;;;8.30;99.90;;;;;;4996523;28;20073;-63
2022/02/05 15:47:28;;;;;;;5.13;0.80;;;8.30;99.90;;;;;;5001357;28;20030;-63
2022/02/05 15:49:54;;;;;;;10.52;1.20;;;8.30;99.90;;;;;;4998574;28;20032;-64
2022/02/05 15:52:20;;;;;;;9.00;1.48;;;8.30;99.90;;;;;;5005590;28;20765;-64
2022/02/05 15:54:46;;;;;;;7.45;1.42;;;8.30;99.90;;;;;;5007973;28;20042;-63
2022/02/05 16:02:15;;;;;;;6.10;0.73;;;8.20;99.90;;;;;;4999381;28;20522;-63
2022/02/05 16:04:40;;;;;;;4.47;1.35;;;8.20;99.90;;;;;;5000140;28;20042;-64
2022/02/05 16:07:06;;;;;;;6.40;0.95;;;8.20;99.90;;;;;;4999017;28;20120;-63
2022/02/05 16:09:32;;;;;;;9.85;1.15;;;8.20;99.90;;;;;;4998203;28;20033;-62
2022/02/05 16:11:58;;;;;;;5.05;0.70;;;8.20;99.90;;;;;;4998383;28;20038;-64
2022/02/05 16:14:24;;;;;;;11.25;1.92;;;8.20;99.90;;;;;;5001924;28;20509;-63
2022/02/05 16:16:50;;;;;;;12.75;1.67;;;8.20;99.90;;;;;;4998384;28;20030;-63
2022/02/05 16:19:16;;;;;;;7.10;1.10;;;8.10;99.90;;;;;;5001606;28;20076;-63
2022/02/05 16:21:41;;;;;;;19.50;1.25;;;8.10;99.90;;;;;;4997152;28;20022;-63